Time;durP1;ratioP1;P1;durP2;ratioP2;P2;SDS_P1;SDS_P2;PMS_P1;PMS_P2;Temp;Humidity;BMP_temperature;BMP_pressure;BME280_temperature;BME280_humidity;BME280_pressure;Samples;Min_cycle;Max_cycle;Signal;HPM_P1;HPM_P2
2023/05/10 00:02:24;;;;;;;0.73;0.60;;;;;;;12.77;100.00;99741.03;5033775;28;20691;-72
2023/05/10 00:04:51;;;;;;;0.50;0.50;;;;;;;12.74;100.00;99748.16;5038857;28;20660;-71
2023/05/10 00:07:17;;;;;;;2.30;0.50;;;;;;;12.72;100.00;99744.63;5025836;28;20579;-71
2023/05/10 00:09:43;;;;;;;2.27;0.77;;;;;;;12.67;100.00;99747.31;5030829;28;20683;-71
2023/05/10 00:12:10;;;;;;;1.23;0.53;;;;;;;12.68;100.00;99748.19;5025933;28;20195;-71
2023/05/10 00:14:36;;;;;;;4.90;1.03;;;;;;;12.67;100.00;99749.06;5031602;28;20582;-71
2023/05/10 00:17:02;;;;;;;1.80;0.60;;;;;;;12.61;100.00;99747.34;5023860;28;20254;-72
2023/05/10 00:19:29;;;;;;;1.40;0.70;;;;;;;12.63;100.00;99756.19;5029735;28;20330;-70
2023/05/10 00:21:55;;;;;;;1.47;0.60;;;;;;;12.67;100.00;99751.72;5030508;28;20194;-71
2023/05/10 00:24:22;;;;;;;0.80;0.60;;;;;;;12.61;100.00;99757.97;5027845;28;20219;-71
2023/05/10 00:26:48;;;;;;;1.20;0.90;;;;;;;12.59;100.00;99746.47;5028074;28;20235;-70
2023/05/10 00:29:14;;;;;;;2.73;0.53;;;;;;;12.61;100.00;99763.28;5030378;28;20220;-71
2023/05/10 00:31:41;;;;;;;0.57;0.50;;;;;;;12.61;100.00;99755.31;5044422;28;20199;-71
2023/05/10 00:34:07;;;;;;;1.40;0.60;;;;;;;12.65;100.00;99757.06;5029911;28;20198;-72
2023/05/10 00:36:33;;;;;;;0.87;0.70;;;;;;;12.61;100.00;99752.66;5025328;28;20641;-70
2023/05/10 00:39:00;;;;;;;0.53;0.53;;;;;;;12.63;100.00;99756.19;5029052;28;20277;-72
2023/05/10 00:41:26;;;;;;;0.47;0.47;;;;;;;12.72;100.00;99758.78;5028781;28;20198;-72
2023/05/10 00:43:53;;;;;;;0.57;0.57;;;;;;;12.68;100.00;99759.69;5023557;28;20198;-72
2023/05/10 00:46:19;;;;;;;0.47;0.47;;;;;;;12.63;100.00;99764.16;5030535;28;20218;-70
2023/05/10 00:48:46;;;;;;;0.50;0.50;;;;;;;12.63;100.00;99766.81;5028179;28;20218;-71
2023/05/10 00:51:13;;;;;;;1.43;0.47;;;;;;;12.59;100.00;99761.53;5030275;28;20195;-71
2023/05/10 00:53:40;;;;;;;0.60;0.50;;;;;;;12.59;100.00;99764.19;5034848;28;20222;-72
2023/05/10 00:56:06;;;;;;;0.40;0.40;;;;;;;12.51;100.00;99769.53;5030036;28;20691;-71
2023/05/10 00:58:33;;;;;;;1.63;0.50;;;;;;;12.48;100.00;99765.13;5018279;28;20282;-70
2023/05/10 01:01:01;;;;;;;0.80;0.50;;;;;;;12.53;100.00;99765.09;5025176;28;20310;-72
2023/05/10 01:03:27;;;;;;;0.97;0.60;;;;;;;12.50;100.00;99765.13;5024117;28;20217;-72
2023/05/10 01:05:54;;;;;;;0.40;0.40;;;;;;;12.45;100.00;99759.81;5038631;28;20187;-72
2023/05/10 01:08:21;;;;;;;2.00;0.50;;;;;;;12.46;100.00;99753.63;5027222;28;20230;-71
2023/05/10 01:10:49;;;;;;;0.40;0.40;;;;;;;12.31;100.00;99743.03;5028171;28;20199;-70
2023/05/10 01:13:30;;;;;;;0.50;0.50;;;;;;;12.41;100.00;99758.06;5027434;28;20660;-71
2023/05/10 01:15:57;;;;;;;0.60;0.60;;;;;;;12.39;100.00;99767.78;5030342;28;20318;-72
2023/05/10 01:18:24;;;;;;;0.67;0.50;;;;;;;12.42;100.00;99769.56;5021809;28;20220;-72
2023/05/10 01:21:07;;;;;;;0.50;0.50;;;;;;;12.34;100.00;99758.97;5028957;28;20206;-68
2023/05/10 01:23:57;;;;;;;0.47;0.47;;;;;;;12.42;100.00;99772.25;5023953;28;20223;-71
2023/05/10 01:26:55;;;;;;;0.50;0.50;;;;;;;12.40;100.00;99774.88;5033089;28;20201;-72
2023/05/10 01:29:47;;;;;;;1.13;0.50;;;;;;;12.36;100.00;99774.88;5028701;28;20617;-72
2023/05/10 01:32:30;;;;;;;1.70;0.70;;;;;;;12.31;100.00;99768.72;5029123;28;20249;-72
2023/05/10 01:35:05;;;;;;;0.63;0.60;;;;;;;12.33;100.00;99774.91;5027538;28;20195;-70
2023/05/10 01:37:41;;;;;;;0.50;0.50;;;;;;;12.30;100.00;99774.91;5030002;28;20690;-71
2023/05/10 01:40:41;;;;;;;0.70;0.70;;;;;;;12.29;100.00;99773.16;5028328;28;20247;-72
2023/05/10 01:43:15;;;;;;;0.60;0.57;;;;;;;12.34;100.00;99777.56;4990604;28;20210;-71
2023/05/10 01:46:10;;;;;;;1.27;0.70;;;;;;;12.33;100.00;99772.25;5044719;28;20245;-71
2023/05/10 01:48:46;;;;;;;1.53;0.60;;;;;;;12.32;100.00;99773.13;5021457;28;20222;-72
2023/05/10 01:51:19;;;;;;;2.10;0.60;;;;;;;12.34;100.00;99772.25;5020899;28;20712;-71
2023/05/10 01:53:47;;;;;;;0.83;0.60;;;;;;;12.28;100.00;99779.34;5029260;28;20202;-71
2023/05/10 01:56:15;;;;;;;0.63;0.60;;;;;;;12.28;100.00;99782.00;5025404;28;20223;-70
2023/05/10 01:58:45;;;;;;;0.87;0.70;;;;;;;12.24;100.00;99781.13;5026097;28;20239;-72
2023/05/10 02:01:13;;;;;;;2.47;0.67;;;;;;;12.32;100.00;99781.09;5034023;28;20557;-70
2023/05/10 02:03:42;;;;;;;1.33;0.77;;;;;;;12.33;100.00;99788.19;5032711;28;20198;-70
2023/05/10 02:06:12;;;;;;;5.40;0.87;;;;;;;12.24;100.00;99779.34;5020464;28;20196;-70
2023/05/10 02:08:40;;;;;;;2.70;0.83;;;;;;;12.28;100.00;99790.84;5032311;28;20276;-72
2023/05/10 02:11:08;;;;;;;0.90;0.80;;;;;;;12.21;100.00;99800.59;5022211;28;20561;-70
2023/05/10 02:13:39;;;;;;;0.77;0.70;;;;;;;12.19;100.00;99801.50;5033820;28;20660;-71
2023/05/10 02:16:07;;;;;;;0.70;0.70;;;;;;;12.19;100.00;99807.69;5029405;28;20254;-72
2023/05/10 02:18:35;;;;;;;1.10;0.70;;;;;;;12.22;100.00;99799.72;5031894;28;20234;-70
2023/05/10 02:21:02;;;;;;;0.70;0.70;;;;;;;12.19;100.00;99799.72;5036383;28;20623;-73
2023/05/10 02:23:30;;;;;;;0.60;0.60;;;;;;;12.20;100.00;99806.81;5029687;28;20284;-72
2023/05/10 02:25:57;;;;;;;0.93;0.67;;;;;;;12.13;100.00;99815.69;5033407;28;20722;-71
2023/05/10 02:28:26;;;;;;;1.47;0.77;;;;;;;12.11;100.00;99806.84;5042384;28;20226;-72
2023/05/10 02:30:54;;;;;;;0.60;0.60;;;;;;;12.11;100.00;99812.16;5033583;28;20203;-70
2023/05/10 02:33:21;;;;;;;0.70;0.70;;;;;;;12.17;100.00;99813.91;5033177;28;20202;-73
2023/05/10 02:35:50;;;;;;;1.03;0.70;;;;;;;12.10;100.00;99807.72;5037575;28;20233;-72
2023/05/10 02:38:18;;;;;;;0.70;0.70;;;;;;;12.09;100.00;99813.91;5034692;28;20668;-72
2023/05/10 02:40:46;;;;;;;0.70;0.70;;;;;;;12.05;100.00;99813.94;5045224;28;20195;-71
2023/05/10 02:43:16;;;;;;;3.03;0.70;;;;;;;12.04;100.00;99812.16;5037272;28;20645;-71
2023/05/10 02:45:44;;;;;;;1.07;0.70;;;;;;;11.94;100.00;99811.28;5026436;28;20825;-73
2023/05/10 02:48:11;;;;;;;0.63;0.63;;;;;;;11.99;100.00;99803.31;5041045;28;20297;-71
2023/05/10 02:50:42;;;;;;;1.90;0.70;;;;;;;12.15;100.00;99813.03;5049301;28;20199;-71
2023/05/10 02:53:13;;;;;;;0.80;0.73;;;;;;;12.22;100.00;99818.31;5033316;28;20231;-72
2023/05/10 02:55:42;;;;;;;0.60;0.60;;;;;;;12.22;100.00;99822.72;5049432;28;20674;-71
2023/05/10 02:58:08;;;;;;;0.70;0.60;;;;;;;12.21;100.00;99818.31;5031035;28;20267;-72
2023/05/10 03:00:36;;;;;;;0.60;0.60;;;;;;;12.13;100.00;99820.09;5041169;28;20233;-70
2023/05/10 03:03:02;;;;;;;0.80;0.70;;;;;;;12.09;100.00;99813.91;5030973;28;20261;-73
2023/05/10 03:05:29;;;;;;;0.70;0.70;;;;;;;12.09;100.00;99821.00;5036720;28;20396;-70
2023/05/10 03:07:55;;;;;;;0.70;0.70;;;;;;;12.01;100.00;99807.75;5030015;28;20250;-71
2023/05/10 03:10:27;;;;;;;0.73;0.63;;;;;;;12.05;100.00;99816.59;5048870;28;20202;-72
2023/05/10 03:13:10;;;;;;;0.70;0.70;;;;;;;12.00;100.00;99813.91;5036299;28;20202;-71
2023/05/10 03:15:46;;;;;;;0.70;0.70;;;;;;;12.05;100.00;99825.44;5034732;28;21305;-71
2023/05/10 03:18:18;;;;;;;1.17;0.70;;;;;;;12.05;100.00;99820.13;5044249;28;20214;-73
2023/05/10 03:20:50;;;;;;;2.13;0.90;;;;;;;12.12;100.00;99828.97;5029357;28;20580;-70
2023/05/10 03:23:19;;;;;;;0.80;0.80;;;;;;;12.15;100.00;99826.28;5035279;28;20245;-72
2023/05/10 03:25:48;;;;;;;1.60;0.80;;;;;;;12.19;100.00;99820.09;5028690;28;20617;-73
2023/05/10 03:28:15;;;;;;;3.03;1.10;;;;;;;12.21;100.00;99821.84;5030037;28;20251;-72
2023/05/10 03:30:43;;;;;;;1.20;1.00;;;;;;;12.27;100.00;99822.72;5037010;28;20230;-72
2023/05/10 03:33:10;;;;;;;1.00;0.90;;;;;;;12.23;100.00;99827.16;5029297;28;20255;-71
2023/05/10 03:35:36;;;;;;;0.90;0.90;;;;;;;12.24;100.00;99826.25;5032708;28;20205;-70
2023/05/10 03:38:03;;;;;;;0.80;0.80;;;;;;;12.23;100.00;99821.84;5036949;28;20254;-70
2023/05/10 03:40:31;;;;;;;1.30;0.80;;;;;;;12.29;100.00;99835.09;5031794;28;20199;-70
2023/05/10 03:42:58;;;;;;;1.50;1.20;;;;;;;12.30;100.00;99836.88;5034727;28;20385;-71
2023/05/10 03:45:25;;;;;;;1.87;0.90;;;;;;;12.30;100.00;99839.53;5036012;28;20402;-71
2023/05/10 03:47:51;;;;;;;1.10;1.00;;;;;;;12.39;100.00;99843.91;5039149;28;20269;-71
2023/05/10 03:50:18;;;;;;;3.90;1.07;;;;;;;12.34;100.00;99838.63;5028582;28;20659;-70
2023/05/10 03:52:45;;;;;;;3.00;1.20;;;;;;;12.41;100.00;99851.03;5026489;28;20584;-71
2023/05/10 03:55:11;;;;;;;1.20;1.10;;;;;;;12.41;100.00;99845.72;5038080;28;21691;-71
2023/05/10 03:57:37;;;;;;;1.57;1.10;;;;;;;12.36;100.00;99836.84;5035547;28;20266;-69
2023/05/10 04:00:05;;;;;;;0.90;0.90;;;;;;;12.40;100.00;99845.69;5030942;28;20202;-72
2023/05/10 04:02:31;;;;;;;1.10;1.00;;;;;;;12.37;100.00;99835.97;5032523;28;20282;-71
2023/05/10 04:04:58;;;;;;;1.60;1.13;;;;;;;12.33;100.00;99835.97;5040191;28;20671;-72
2023/05/10 04:07:26;;;;;;;1.90;1.00;;;;;;;12.27;100.00;99839.53;5039764;28;20202;-70
2023/05/10 04:09:53;;;;;;;1.40;1.17;;;;;;;12.25;100.00;99838.66;5029556;28;20197;-72
2023/05/10 04:12:19;;;;;;;1.60;1.20;;;;;;;12.35;100.00;99842.16;5029451;28;20246;-71
2023/05/10 04:14:46;;;;;;;1.17;1.07;;;;;;;12.34;100.00;99835.09;5025639;28;20207;-70
2023/05/10 04:17:12;;;;;;;2.27;1.10;;;;;;;12.39;100.00;99841.25;5032102;28;20219;-73
2023/05/10 04:19:39;;;;;;;1.40;1.20;;;;;;;12.41;100.00;99842.16;5036125;28;20219;-70
2023/05/10 04:22:05;;;;;;;1.30;1.20;;;;;;;12.42;100.00;99838.63;5031178;28;20274;-71
2023/05/10 04:24:31;;;;;;;1.70;1.20;;;;;;;12.43;100.00;99833.31;5030888;28;20231;-72
2023/05/10 04:26:58;;;;;;;1.70;1.37;;;;;;;12.53;100.00;99856.28;5031987;28;20361;-71
2023/05/10 04:29:24;;;;;;;1.93;1.20;;;;;;;12.59;100.00;99851.84;5030853;28;20255;-71
2023/05/10 04:31:50;;;;;;;1.50;1.40;;;;;;;12.62;100.00;99854.47;5026806;28;20199;-71
2023/05/10 04:34:17;;;;;;;4.47;1.40;;;;;;;12.75;100.00;99856.19;5028073;28;20230;-71
2023/05/10 04:36:43;;;;;;;4.90;1.40;;;;;;;12.70;100.00;99850.03;5034072;28;20306;-72
2023/05/10 04:39:10;;;;;;;3.00;1.40;;;;;;;12.77;100.00;99857.06;5070241;23;20619;-83
2023/05/10 04:41:38;;;;;;;1.43;1.30;;;;;;;12.77;100.00;99857.94;5067502;28;20235;-84
2023/05/10 04:44:04;;;;;;;2.43;1.83;;;;;;;12.77;100.00;99860.59;5058941;28;20202;-83
2023/05/10 04:46:30;;;;;;;2.50;1.53;;;;;;;12.80;100.00;99873.88;5055179;28;20224;-83
2023/05/10 04:48:57;;;;;;;1.73;1.40;;;;;;;12.79;100.00;99873.88;5061084;28;20306;-82
2023/05/10 04:51:23;;;;;;;4.03;1.50;;;;;;;12.81;100.00;99872.16;5061112;28;20194;-83
2023/05/10 04:53:49;;;;;;;3.90;1.30;;;;;;;12.84;100.00;99878.31;5064981;28;20190;-83
2023/05/10 04:56:30;;;;;;;1.97;1.50;;;;;;;12.82;100.00;99873.91;5065856;28;20244;-83
2023/05/10 04:58:56;;;;;;;1.87;1.50;;;;;;;12.85;100.00;99880.09;5059682;28;20238;-81
2023/05/10 05:01:22;;;;;;;2.67;1.90;;;;;;;12.83;100.00;99883.66;5043896;28;20272;-83
2023/05/10 05:03:49;;;;;;;1.80;1.60;;;;;;;12.84;100.00;99880.97;5059802;28;20659;-80
2023/05/10 05:06:15;;;;;;;1.93;1.73;;;;;;;12.87;100.00;99872.09;5063300;28;20205;-81
2023/05/10 05:08:42;;;;;;;1.67;1.40;;;;;;;12.84;100.00;99883.63;5056864;28;20587;-80
2023/05/10 05:11:08;;;;;;;1.73;1.40;;;;;;;12.82;100.00;99864.16;5057735;28;20561;-79
2023/05/10 05:13:35;;;;;;;4.30;1.40;;;;;;;12.84;100.00;99869.47;5063925;28;20226;-80
2023/05/10 05:16:02;;;;;;;4.00;1.90;;;;;;;12.84;100.00;99867.69;5067749;28;20543;-82
2023/05/10 05:18:28;;;;;;;2.73;1.53;;;;;;;12.83;100.00;99862.38;5061213;28;20222;-77
2023/05/10 05:20:55;;;;;;;3.40;1.70;;;;;;;12.83;100.00;99871.25;5064109;28;20257;-81
2023/05/10 05:23:24;;;;;;;3.57;1.57;;;;;;;12.88;100.00;99873.00;5058822;28;20222;-79
2023/05/10 05:25:54;;;;;;;3.27;1.57;;;;;;;12.85;100.00;99869.47;5060527;28;20198;-74
2023/05/10 05:28:20;;;;;;;2.07;1.50;;;;;;;13.03;100.00;99884.44;5061227;28;20218;-72
2023/05/10 05:30:47;;;;;;;2.93;1.83;;;;;;;13.14;100.00;99879.06;5059400;28;20662;-76
2023/05/10 05:33:16;;;;;;;2.77;1.70;;;;;;;13.35;100.00;99884.28;5062418;28;20213;-77
2023/05/10 05:35:47;;;;;;;3.67;1.90;;;;;;;13.62;100.00;99888.56;5059613;28;20221;-74
2023/05/10 05:38:14;;;;;;;3.10;1.87;;;;;;;13.84;100.00;99888.38;5062005;28;20739;-77
2023/05/10 05:40:40;;;;;;;2.87;1.90;;;;;;;13.85;100.00;99884.84;5058793;28;20194;-78
2023/05/10 05:43:06;;;;;;;3.97;2.07;;;;;;;14.02;100.00;99883.81;5064082;28;20194;-73
2023/05/10 05:45:33;;;;;;;2.73;2.17;;;;;;;14.34;100.00;99885.28;5055445;28;20199;-75
2023/05/10 05:47:59;;;;;;;2.50;1.90;;;;;;;14.61;100.00;99886.81;5061759;28;20693;-76
2023/05/10 05:50:25;;;;;;;5.10;2.00;;;;;;;14.69;100.00;99885.81;5061678;28;20293;-77
2023/05/10 05:52:52;;;;;;;5.13;2.40;;;;;;;14.86;100.00;99885.63;5059641;28;20206;-74
2023/05/10 05:55:18;;;;;;;3.77;2.20;;;;;;;14.83;100.00;99888.34;5038343;28;20284;-76
2023/05/10 05:57:45;;;;;;;2.57;1.70;;;;;;;14.76;100.00;99899.94;5063427;28;20229;-76
2023/05/10 06:00:12;;;;;;;2.93;1.80;;;;;;;14.66;100.00;99893.84;5065701;28;20198;-74
2023/05/10 06:02:38;;;;;;;3.23;2.20;;;;;;;14.69;100.00;99901.81;5073632;28;20194;-77
2023/05/10 06:05:06;;;;;;;4.87;2.23;;;;;;;14.64;100.00;99908.09;5044499;28;20588;-75
2023/05/10 06:07:32;;;;;;;2.97;2.10;;;;;;;14.41;100.00;99911.88;5062937;28;20235;-77
2023/05/10 06:09:58;;;;;;;2.47;2.00;;;;;;;14.35;100.00;99903.00;5051680;28;20193;-76
2023/05/10 06:12:25;;;;;;;4.70;2.33;;;;;;;14.36;100.00;99910.09;5072389;28;20206;-75
2023/05/10 06:14:51;;;;;;;6.20;2.03;;;;;;;14.41;100.00;99909.19;5070825;28;20195;-75
2023/05/10 06:17:17;;;;;;;9.23;2.30;;;;;;;14.51;100.00;99910.00;5061854;28;20210;-75
2023/05/10 06:19:44;;;;;;;2.50;2.00;;;;;;;14.60;100.00;99917.03;5063645;28;20637;-76
2023/05/10 06:22:10;;;;;;;4.33;2.13;;;;;;;14.83;100.00;99917.66;5053741;28;20612;-75
2023/05/10 06:24:36;;;;;;;4.00;2.00;;;;;;;14.91;100.00;99920.25;5065886;28;20202;-74
2023/05/10 06:27:03;;;;;;;4.93;2.10;;;;;;;15.21;100.00;99917.19;5072806;28;20225;-75
2023/05/10 06:29:30;;;;;;;3.50;2.00;;;;;;;15.57;100.00;99913.13;5068278;28;20257;-76
2023/05/10 06:31:56;;;;;;;4.50;1.80;;;;;;;15.87;100.00;99926.94;5064266;28;20630;-74
2023/05/10 06:34:23;;;;;;;5.80;2.17;;;;;;;16.24;100.00;99933.47;5062702;28;20578;-75
2023/05/10 06:36:49;;;;;;;9.70;2.00;;;;;;;16.59;99.34;99935.53;5070677;28;20237;-75
2023/05/10 06:39:16;;;;;;;3.83;1.90;;;;;;;16.82;97.12;99937.81;5072867;28;20298;-76
2023/05/10 06:41:42;;;;;;;3.33;1.70;;;;;;;17.14;95.18;99934.47;5063633;28;20259;-74
2023/05/10 06:44:08;;;;;;;2.03;1.63;;;;;;;17.14;94.20;99933.59;5064281;28;20190;-74
2023/05/10 06:46:35;;;;;;;3.30;1.40;;;;;;;17.07;94.03;99948.00;5071626;28;20198;-74
2023/05/10 06:49:01;;;;;;;3.40;1.57;;;;;;;16.92;93.93;99947.41;5052919;28;20218;-74
2023/05/10 06:51:27;;;;;;;9.30;2.00;;;;;;;16.89;94.86;99950.16;5060927;28;20629;-74
2023/05/10 06:53:54;;;;;;;2.93;1.90;;;;;;;16.91;93.83;99953.66;5065365;28;20226;-74
2023/05/10 06:56:21;;;;;;;4.07;1.70;;;;;;;17.17;93.09;99942.44;5070267;28;20198;-73
2023/05/10 06:58:48;;;;;;;2.30;1.80;;;;;;;17.62;91.24;99944.19;5071120;28;20287;-73
2023/05/10 07:01:14;;;;;;;6.33;1.80;;;;;;;17.80;88.41;99950.00;5058699;28;20190;-73
2023/05/10 07:03:41;;;;;;;2.80;1.70;;;;;;;17.88;89.57;99948.94;5068896;28;20281;-73
2023/05/10 07:06:07;;;;;;;2.90;1.80;;;;;;;18.00;88.08;99945.97;5071548;28;20221;-73
2023/05/10 07:08:47;;;;;;;3.27;1.67;;;;;;;17.99;86.77;99954.94;5064876;28;20213;-73
2023/05/10 07:11:13;;;;;;;5.97;2.03;;;;;;;18.17;84.49;99958.06;5041557;28;20620;-73
2023/05/10 07:13:43;;;;;;;3.63;1.77;;;;;;;18.31;84.68;99960.41;5064974;28;20217;-73
2023/05/10 07:16:10;;;;;;;2.40;1.80;;;;;;;18.27;84.13;99969.44;5065589;28;20205;-74
2023/05/10 07:18:36;;;;;;;3.87;2.10;;;;;;;18.25;83.54;99965.91;5056820;28;20227;-73
2023/05/10 07:21:03;;;;;;;3.07;1.70;;;;;;;18.31;83.68;99964.88;5052256;28;20229;-73
2023/05/10 07:23:30;;;;;;;1.95;1.50;;;;;;;18.32;80.51;99959.47;5054155;28;20204;-73
2023/05/10 07:25:57;;;;;;;2.97;1.90;;;;;;;18.39;81.09;99968.25;5067980;28;20257;-72
2023/05/10 07:28:24;;;;;;;2.63;1.80;;;;;;;18.45;80.79;99970.78;5060625;28;20288;-73
2023/05/10 07:30:50;;;;;;;3.30;1.80;;;;;;;18.72;81.98;99971.88;5057988;28;20209;-72
2023/05/10 07:33:17;;;;;;;6.37;2.03;;;;;;;19.10;78.39;99971.72;5072355;28;20262;-72
2023/05/10 07:35:43;;;;;;;4.68;1.50;;;;;;;19.00;77.82;99980.09;5069406;28;20194;-72
2023/05/10 07:38:10;;;;;;;4.85;3.00;;;;;;;19.28;77.52;99975.72;5061998;28;20221;-72
2023/05/10 07:40:38;;;;;;;23.07;13.23;;;;;;;19.23;77.00;99980.34;5053841;28;20706;-72
2023/05/10 07:43:04;;;;;;;40.08;20.02;;;;;;;18.93;77.46;99983.88;5049999;28;20554;-72
2023/05/10 07:45:30;;;;;;;69.53;31.27;;;;;;;18.63;80.25;99988.22;5066336;28;20205;-73
2023/05/10 07:47:57;;;;;;;95.63;34.95;;;;;;;18.38;80.95;99991.50;5041797;28;20268;-72
2023/05/10 07:50:23;;;;;;;110.93;40.65;;;;;;;18.10;82.92;99982.38;5065040;28;20674;-72
2023/05/10 07:52:50;;;;;;;57.88;24.52;;;;;;;17.96;82.07;99989.84;5060079;28;20667;-72
2023/05/10 07:55:18;;;;;;;23.10;7.32;;;;;;;17.84;81.77;99996.38;5071274;28;20206;-72
2023/05/10 07:57:45;;;;;;;22.53;7.47;;;;;;;17.62;84.31;99989.69;5069796;28;20686;-72
2023/05/10 08:00:13;;;;;;;16.50;5.03;;;;;;;17.64;85.25;99988.75;5050611;28;20226;-71
2023/05/10 08:02:40;;;;;;;12.03;3.37;;;;;;;17.59;84.57;99992.41;5059630;28;20202;-72
2023/05/10 08:05:07;;;;;;;7.13;3.00;;;;;;;17.54;86.52;99995.19;5059409;28;20195;-72
2023/05/10 08:07:34;;;;;;;14.83;3.03;;;;;;;17.41;84.84;99986.56;5070145;28;20631;-72
2023/05/10 08:10:01;;;;;;;10.37;3.37;;;;;;;17.52;85.19;99997.03;5069227;28;20206;-73
2023/05/10 08:12:28;;;;;;;4.00;2.17;;;;;;;17.30;84.65;99988.56;5059692;28;20609;-72
2023/05/10 08:14:54;;;;;;;2.20;1.67;;;;;;;17.42;84.30;99980.28;5059362;28;20215;-71
2023/05/10 08:17:20;;;;;;;4.03;1.50;;;;;;;17.53;82.91;99991.63;5069567;28;20230;-73
2023/05/10 08:19:49;;;;;;;3.33;1.60;;;;;;;17.26;84.04;99988.69;5062933;28;20950;-72
2023/05/10 08:22:16;;;;;;;3.27;1.70;;;;;;;17.35;83.43;99994.72;5058621;28;20195;-73
2023/05/10 08:24:42;;;;;;;1.93;1.43;;;;;;;17.77;82.80;99994.75;5053500;28;20230;-72
2023/05/10 08:27:09;;;;;;;2.23;1.77;;;;;;;18.32;80.53;99988.09;5067608;28;20624;-72
2023/05/10 08:29:35;;;;;;;3.53;1.60;;;;;;;18.95;77.84;99992.75;5064756;28;20214;-72
2023/05/10 08:32:15;;;;;;;2.37;1.60;;;;;;;19.78;75.84;99989.47;5059585;28;20298;-72
2023/05/10 08:34:41;;;;;;;3.03;1.83;;;;;;;20.20;71.82;99991.75;5058356;28;20221;-72
2023/05/10 08:37:08;;;;;;;4.57;1.90;;;;;;;20.57;69.36;99994.13;5067274;28;20718;-72
2023/05/10 08:39:35;;;;;;;6.15;1.52;;;;;;;20.55;69.77;99999.56;5064031;28;20244;-72
2023/05/10 08:42:04;;;;;;;2.38;1.55;;;;;;;20.70;68.84;100000.84;5067192;28;20195;-72
2023/05/10 08:44:34;;;;;;;2.25;1.45;;;;;;;20.64;68.92;100001.94;5064428;28;20264;-72
2023/05/10 08:47:05;;;;;;;2.97;1.40;;;;;;;20.50;70.64;100003.34;5061925;28;20670;-72
2023/05/10 08:49:32;;;;;;;3.17;1.50;;;;;;;19.72;71.91;100011.16;5061290;28;20305;-71
2023/05/10 08:52:03;;;;;;;3.25;1.52;;;;;;;19.17;80.40;100025.25;5066852;28;20198;-74
2023/05/10 08:54:31;;;;;;;5.70;1.88;;;;;;;18.51;83.41;100021.59;5053722;28;20199;-76
2023/05/10 08:56:58;;;;;;;4.95;1.60;;;;;;;17.76;87.81;100026.00;5049972;28;20199;-76
2023/05/10 08:59:25;;;;;;;2.65;1.65;;;;;;;17.61;91.84;100023.63;5063709;28;20230;-76
2023/05/10 09:01:54;;;;;;;4.97;1.77;;;;;;;17.60;91.00;100034.34;5067321;28;20199;-76
2023/05/10 09:04:21;;;;;;;2.67;1.42;;;;;;;17.72;89.42;100020.75;5055203;28;20221;-76
2023/05/10 09:06:47;;;;;;;4.70;2.00;;;;;;;18.00;92.04;100024.56;5042001;28;20709;-76
2023/05/10 09:09:15;;;;;;;4.30;1.90;;;;;;;18.60;88.21;100029.41;5067619;28;20214;-76
2023/05/10 09:11:43;;;;;;;4.70;1.83;;;;;;;18.88;85.65;100029.63;5052207;28;20194;-76
2023/05/10 09:14:10;;;;;;;3.67;1.70;;;;;;;19.17;88.48;100031.50;5058601;28;20257;-76
2023/05/10 09:16:36;;;;;;;5.10;1.65;;;;;;;19.83;84.23;100032.34;5065276;28;20201;-74
2023/05/10 09:19:02;;;;;;;5.13;1.67;;;;;;;20.18;77.12;100026.75;5048100;28;20253;-75
2023/05/10 09:21:30;;;;;;;2.75;1.60;;;;;;;20.73;76.81;100034.84;5050386;28;20244;-75
2023/05/10 09:24:02;;;;;;;2.63;1.42;;;;;;;21.15;78.46;100024.41;5057675;28;20277;-75
2023/05/10 09:26:28;;;;;;;2.78;1.33;;;;;;;21.24;75.06;100032.22;5061360;28;20194;-75
2023/05/10 09:28:59;;;;;;;3.85;1.52;;;;;;;21.16;77.13;100034.25;5069693;28;20213;-74
2023/05/10 09:31:51;;;;;;;3.05;1.30;;;;;;;20.52;75.38;100044.53;5064341;28;20256;-75
2023/05/10 09:34:28;;;;;;;1.83;0.90;;;;;;;18.74;80.74;100059.47;5058907;28;20474;-74
2023/05/10 09:36:57;;;;;;;1.33;0.90;;;;;;;17.81;87.63;100058.06;5069538;28;20708;-75
2023/05/10 09:39:34;;;;;;;0.90;0.70;;;;;;;17.01;92.76;100064.06;5065965;28;20256;-76
2023/05/10 09:42:08;;;;;;;0.80;0.80;;;;;;;16.50;95.31;100069.34;5052290;28;20250;-76
2023/05/10 09:44:35;;;;;;;3.47;1.00;;;;;;;16.38;98.05;100066.84;5061757;28;20666;-76
2023/05/10 09:47:02;;;;;;;1.57;1.10;;;;;;;16.43;100.00;100059.66;5065249;28;20204;-77
2023/05/10 09:49:29;;;;;;;1.20;1.10;;;;;;;16.64;100.00;100061.09;5049076;28;20218;-77
2023/05/10 09:52:07;;;;;;;1.63;1.20;;;;;;;17.01;99.29;100065.84;5063920;28;20198;-76
2023/05/10 09:54:34;;;;;;;1.30;1.10;;;;;;;17.52;94.63;100054.13;5050585;28;20202;-77
2023/05/10 09:57:01;;;;;;;1.50;1.20;;;;;;;18.14;94.68;100056.44;5049926;28;20282;-76
2023/05/10 09:59:28;;;;;;;3.30;1.00;;;;;;;18.69;90.75;100045.28;5068382;28;20249;-76
2023/05/10 10:01:57;;;;;;;2.10;1.07;;;;;;;19.09;85.99;100054.97;5065983;28;20199;-77
2023/05/10 10:04:23;;;;;;;1.33;0.80;;;;;;;19.71;84.76;100053.28;5050168;28;20199;-76
2023/05/10 10:07:00;;;;;;;1.23;0.88;;;;;;;20.02;80.32;100047.88;5063882;28;20225;-76
2023/05/10 10:09:28;;;;;;;1.95;0.85;;;;;;;20.33;77.70;100060.34;5066177;28;20218;-76
2023/05/10 10:11:55;;;;;;;3.05;0.95;;;;;;;20.85;78.54;100056.88;5057584;28;20230;-76
2023/05/10 10:14:23;;;;;;;1.00;0.80;;;;;;;21.44;74.42;100059.28;5060107;28;20199;-75
2023/05/10 10:16:51;;;;;;;0.63;0.60;;;;;;;21.58;70.82;100061.47;5069348;28;20202;-75
2023/05/10 10:19:34;;;;;;;1.55;0.80;;;;;;;21.54;67.66;100063.41;5061938;28;20214;-75
2023/05/10 10:22:02;;;;;;;1.67;0.68;;;;;;;21.98;67.26;100055.44;5065037;28;20252;-74
2023/05/10 10:24:28;;;;;;;1.23;0.68;;;;;;;21.71;66.20;100054.72;5051398;28;20198;-74
2023/05/10 10:27:02;;;;;;;1.13;0.57;;;;;;;21.80;65.53;100048.09;5065810;28;20199;-74
2023/05/10 10:29:58;;;;;;;2.05;0.57;;;;;;;21.49;65.02;100057.31;5057254;28;20207;-73
2023/05/10 10:32:35;;;;;;;3.88;0.60;;;;;;;21.64;61.98;100063.97;5065417;28;20865;-73
2023/05/10 10:35:02;;;;;;;1.83;0.70;;;;;;;21.51;63.14;100058.13;5066299;28;20198;-73
2023/05/10 10:37:50;;;;;;;0.65;0.65;;;;;;;21.83;64.15;100059.63;5052267;28;20302;-73
2023/05/10 10:40:32;;;;;;;2.22;0.77;;;;;;;21.82;62.89;100070.47;5094592;23;20535;-72
2023/05/10 10:43:26;;;;;;;1.88;0.90;;;;;;;21.39;62.59;100073.88;5075059;28;20711;-71
2023/05/10 10:46:15;;;;;;;0.95;0.70;;;;;;;22.06;61.59;100066.00;5070896;28;20228;-71
2023/05/10 10:49:07;;;;;;;2.17;0.93;;;;;;;22.72;60.32;100064.22;5049487;28;20210;-71
2023/05/10 10:51:37;;;;;;;3.92;1.13;;;;;;;23.12;55.92;100064.31;5063266;28;20682;-71
2023/05/10 10:54:11;;;;;;;2.15;0.88;;;;;;;22.99;55.57;100064.91;5070759;28;20260;-72
2023/05/10 10:56:38;;;;;;;1.38;0.98;;;;;;;22.90;57.50;100068.03;5068223;28;20567;-71
2023/05/10 10:59:04;;;;;;;2.75;0.90;;;;;;;22.31;57.36;100065.91;5068251;28;20280;-71
2023/05/10 11:01:36;;;;;;;1.35;0.82;;;;;;;22.04;55.83;100063.38;5067028;28;20198;-71
2023/05/10 11:04:03;;;;;;;0.60;0.60;;;;;;;21.71;56.17;100076.28;5070311;28;20194;-73
2023/05/10 11:06:35;;;;;;;3.08;0.70;;;;;;;21.75;55.96;100072.53;5072132;28;20194;-71
2023/05/10 11:09:09;;;;;;;0.60;0.60;;;;;;;21.53;54.80;100076.94;5071324;28;20230;-71
2023/05/10 11:11:47;;;;;;;0.93;0.68;;;;;;;21.22;56.30;100074.44;5067492;28;20599;-71
2023/05/10 11:14:14;;;;;;;0.82;0.73;;;;;;;21.72;57.70;100080.72;5069388;28;20202;-71
2023/05/10 11:16:44;;;;;;;0.80;0.70;;;;;;;21.62;55.21;100071.22;5062437;28;20197;-71
2023/05/10 11:19:13;;;;;;;4.95;1.00;;;;;;;22.19;56.28;100067.28;5065387;28;20218;-70
2023/05/10 11:21:51;;;;;;;0.82;0.70;;;;;;;22.63;54.57;100062.78;5069483;28;20233;-73
2023/05/10 11:24:22;;;;;;;1.35;0.73;;;;;;;22.28;53.40;100060.63;5069896;28;20190;-73
2023/05/10 11:26:51;;;;;;;1.90;0.75;;;;;;;22.86;53.27;100061.00;5069921;28;20647;-69
2023/05/10 11:29:17;;;;;;;0.77;0.60;;;;;;;22.94;52.84;100069.66;5070472;28;20713;-70
2023/05/10 11:31:45;;;;;;;0.85;0.80;;;;;;;22.52;50.30;100057.84;5066430;28;20198;-71
2023/05/10 11:34:14;;;;;;;0.85;0.80;;;;;;;21.76;51.71;100063.50;5070558;28;20666;-70
2023/05/10 11:36:40;;;;;;;1.13;0.85;;;;;;;21.81;52.96;100066.03;5050216;28;20209;-71